Airfield :
LOGIN :

Register | Disclaimer

   EN    FR    IT 

 










Legend :    VFR   Marginal VFR   IFR   Intensive IFR   Very Intensive IFR
Visi :
Ceiling :
>= 8 km
>= 3000ft
5 to 8 km
1000 to 3000 ft
1500m to 5 km
500 to 1000 ft
800 to 1500m
200 to 500 ft
< 800m
< 200 ft
Symbols :   Thunderstorms  Fog  Heavy snow  Heavy precipitations  Wind > 20 kt
SIGMETs :     Misc.  Thunderstorms  Icing  Turbulence  Mountain Waves  Volcanic Ashes






- Airport Elevation : 650 ft
- IATA code : ZJI


LSZL - Locarno

CURRENT METAR :
  • 231450Z AUTO 24003KT 190V270 8000NDV NCD 14/02 Q1023 RMK

EXPIRED METARs :
  • 231420Z AUTO VRB02KT 9999NDV NCD 13/01 Q1023 RMK
  • 231350Z AUTO 26003KT 230V300 9999NDV NCD 13/01 Q1024 RMK
  • 231320Z AUTO 25005KT 9999NDV NCD 12/01 Q1024 RMK
  • 231250Z AUTO 24004KT 210V270 9999NDV NCD 12/03 Q1024 RMK
  • 231220Z AUTO 24004KT 9999NDV NCD 12/02 Q1025 RMK

Expired Forecast.



MET'MAP, your aeronautical weather chart ! - Copyright ORBIFLY December 2007 - Disclaimer

ORBIFLY MET'MAP TEAM :

Programming & Development : Alexandra Zaïnal
Concept & original design : Baudouin d'Aumeries
Assistance for programming : Marc-Olivier Méhu
Technical & hardware support : Manuel Goepfert

Contact : metmap@orbifly.com




SOURCES & CREDITS :

   NOAA